Myakka City, FL (34251)

12:19 PM EST on December 10, 2016 (GMT -0500)
Dunson Myakka Grove | | Change Station

Elev 69 ft 27.33 °N, 82.16 °W | Updated 3 minutes ago

Clear
Clear
71.6 °F
Feels Like 75 °F
N
8.0
Wind Variable Wind from ENE
Gusts 15.0 mph

Today
High -- | Low -- °F
--% Chance of Precip.
Yesterday
High -- | Low -- °F
Precip. -- in
Pressure 30.29 in
Visibility 10.0 miles
Clouds Clear
Heat Index 75 °F
Dew Point 60 °F
Humidity 66%
Rainfall 0.00 in
Snow Depth Not available.
7:08 AM 5:35 PM
Waxing Gibbous, 85% visible
METAR KSRQ 101653Z 05011KT 10SM CLR 21/11 A3029 RMK AO2 SLP255 T02060106
Pressure 30.29 in
Visibility 10.0 miles
Clouds Clear
Heat Index 75 °F
Dew Point 60 °F
Humidity 66%
Rainfall 0.00 in
Snow Depth Not available.
7:08 AM 5:35 PM
Waxing Gibbous, 85% visible
METAR KSRQ 101653Z 05011KT 10SM CLR 21/11 A3029 RMK AO2 SLP255 T02060106

10-Day Weather Forecast

Almanac

Astronomy

Dec. 10, 2016 Rise Set
Actual Time
Civil Twilight
Nautical Twilight
Astronomical Twilight
Moon
Length of Visible Light
Length of Day
Tomorrow will be .
, % of the Moon is Illuminated

Today's Extremes

State Highs State Lows

Community

WunderPhotos

Upload Photos

1,956,588 photos uploaded!

WunderBlog® & News

Nearby

Air Quality

  Air Quality AQ Index Pollutant
Not available.

Snow Depth

Station Depth Elevation

Earthquake Activity

City Distance Mag. Time & Date
Minimum magnitude displayed is 2.5.

Coastal Water Temperatures

Place Temperature

Stations

Nearby Weather Stations

Station Location Temp. Windchill Dew Point Humidity Wind Precip. Elev Updated Type
                   

Watches & Warnings

There are currently no watches in effect.